createdAt,value
2022-10-19T00:00:20.887Z,91.30
2022-10-19T00:02:48.382Z,87.10
2022-10-19T00:04:56.289Z,92.60
2022-10-19T00:07:03.892Z,89.50
2022-10-19T00:09:13.765Z,86.30
2022-10-19T00:11:20.837Z,86.60
2022-10-19T00:13:27.682Z,88.70
2022-10-19T00:15:34.180Z,86.00
2022-10-19T00:17:41.067Z,86.30
2022-10-19T00:19:47.781Z,83.60
2022-10-19T00:21:55.067Z,85.50
2022-10-19T00:24:00.913Z,83.90
2022-10-19T00:26:07.439Z,82.50
2022-10-19T00:28:14.314Z,78.90
2022-10-19T00:30:20.574Z,80.70
2022-10-19T00:32:29.700Z,80.30
2022-10-19T00:34:36.048Z,84.60
2022-10-19T00:36:43.096Z,84.10
2022-10-19T00:38:50.432Z,81.40
2022-10-19T00:40:59.283Z,83.10
2022-10-19T00:43:05.456Z,83.20
2022-10-19T00:45:17.932Z,84.20
2022-10-19T00:47:25.944Z,78.50
2022-10-19T00:49:37.537Z,82.20
2022-10-19T00:53:52.453Z,79.80
2022-10-19T00:55:59.968Z,80.30
2022-10-19T00:58:06.182Z,78.40
2022-10-19T01:00:12.937Z,80.10
2022-10-19T01:02:19.577Z,77.80
2022-10-19T01:04:30.884Z,80.40
2022-10-19T01:06:38.203Z,80.20
2022-10-19T01:08:44.693Z,80.10
2022-10-19T01:11:15.512Z,83.40
2022-10-19T01:13:29.778Z,80.00
2022-10-19T01:15:43.922Z,80.70
2022-10-19T01:18:11.155Z,83.10
2022-10-19T01:20:41.607Z,80.20
2022-10-19T01:23:33.699Z,77.50
2022-10-19T01:25:57.155Z,77.90
2022-10-19T01:28:33.075Z,78.00
2022-10-19T01:30:46.053Z,78.20
2022-10-19T01:33:10.827Z,77.00
2022-10-19T01:35:21.179Z,76.00
2022-10-19T01:37:58.155Z,77.50
2022-10-19T01:40:28.179Z,74.20
2022-10-19T01:42:41.973Z,78.20
2022-10-19T01:45:15.417Z,79.10
2022-10-19T01:47:28.135Z,76.50
2022-10-19T01:49:49.251Z,80.40
2022-10-19T01:52:05.360Z,77.00
2022-10-19T01:54:16.974Z,77.80
2022-10-19T01:56:29.923Z,76.90
2022-10-19T01:58:41.266Z,77.10
2022-10-19T02:00:54.635Z,77.10
2022-10-19T02:03:05.507Z,73.70
2022-10-19T02:05:19.237Z,76.70
2022-10-19T02:07:35.171Z,76.40
2022-10-19T02:09:42.075Z,74.10
2022-10-19T02:11:56.121Z,77.00
2022-10-19T02:14:09.511Z,76.30
2022-10-19T02:16:26.546Z,78.60
2022-10-19T02:18:39.593Z,76.00
2022-10-19T02:20:48.870Z,78.50
2022-10-19T02:23:01.680Z,76.80
2022-10-19T02:25:12.926Z,76.90
2022-10-19T02:27:20.505Z,75.10
2022-10-19T02:29:34.850Z,76.20
2022-10-19T02:31:45.773Z,77.70
2022-10-19T02:34:09.009Z,78.00
2022-10-19T02:41:44.010Z,78.60
2022-10-19T02:43:55.941Z,76.50
2022-10-19T02:48:20.833Z,74.50
2022-10-19T02:50:28.875Z,75.20
2022-10-19T02:52:35.213Z,74.50
2022-10-19T02:54:44.686Z,76.70
2022-10-19T02:56:51.395Z,78.50
2022-10-19T02:58:58.110Z,78.80
2022-10-19T03:01:04.436Z,79.90
2022-10-19T03:03:12.231Z,77.40
2022-10-19T03:05:18.359Z,79.60
2022-10-19T03:07:25.224Z,81.90
2022-10-19T03:09:31.465Z,80.10
2022-10-19T03:11:38.183Z,80.70
2022-10-19T03:13:44.698Z,80.90
2022-10-19T03:15:51.426Z,85.50
2022-10-19T03:17:58.275Z,87.70
2022-10-19T03:20:04.937Z,83.60
2022-10-19T03:22:11.158Z,86.30
2022-10-19T03:24:17.546Z,84.80
2022-10-19T03:26:23.916Z,85.40
2022-10-19T03:28:30.980Z,85.40
2022-10-19T03:30:37.032Z,86.80
2022-10-19T03:32:43.605Z,87.60
2022-10-19T03:34:50.880Z,87.40
2022-10-19T03:37:00.156Z,93.00
2022-10-19T03:39:15.544Z,93.00
2022-10-19T03:41:23.580Z,92.20
2022-10-19T03:43:29.592Z,90.30
2022-10-19T03:45:35.783Z,90.20
2022-10-19T03:47:42.353Z,88.50
2022-10-19T03:49:51.287Z,92.70
2022-10-19T03:51:57.573Z,91.70
2022-10-19T03:54:07.721Z,99.10
2022-10-19T03:56:16.652Z,97.00
2022-10-19T03:58:23.074Z,96.60
2022-10-19T04:00:29.833Z,95.10
2022-10-19T04:02:36.340Z,95.20
2022-10-19T04:04:43.135Z,96.90
2022-10-19T04:06:51.263Z,97.50
2022-10-19T04:08:58.307Z,96.30
2022-10-19T04:11:07.042Z,95.00
2022-10-19T04:13:13.259Z,97.20
2022-10-19T04:15:19.999Z,93.60
2022-10-19T04:17:26.973Z,93.30
2022-10-19T04:19:33.993Z,93.40
2022-10-19T04:21:41.665Z,90.00
2022-10-19T04:23:47.796Z,95.00
2022-10-19T04:25:53.982Z,94.50
2022-10-19T04:28:00.733Z,96.30
2022-10-19T04:30:07.196Z,97.60
2022-10-19T04:32:13.907Z,96.50
2022-10-19T04:34:20.829Z,92.70
2022-10-19T04:36:27.504Z,97.10
2022-10-19T04:38:34.900Z,97.40
2022-10-19T04:40:41.193Z,97.30
2022-10-19T04:42:47.611Z,91.70
2022-10-19T04:44:53.636Z,92.60
2022-10-19T04:47:00.307Z,92.80
2022-10-19T04:49:07.796Z,87.90
2022-10-19T04:51:14.096Z,91.10
2022-10-19T04:53:20.809Z,95.90
2022-10-19T04:55:27.114Z,93.50
2022-10-19T04:57:34.045Z,92.70
2022-10-19T04:59:40.495Z,93.50
2022-10-19T05:01:47.522Z,96.70
2022-10-19T05:04:02.305Z,98.20
2022-10-19T05:06:09.331Z,99.90
2022-10-19T05:08:15.560Z,97.40
2022-10-19T05:10:22.397Z,101.50
2022-10-19T05:12:29.130Z,96.50
2022-10-19T05:14:37.903Z,99.70
2022-10-19T05:16:46.789Z,95.90
2022-10-19T05:18:57.288Z,92.40
2022-10-19T05:21:12.667Z,96.80
2022-10-19T05:23:19.236Z,88.50
2022-10-19T05:25:25.542Z,98.50
2022-10-19T05:27:32.397Z,94.90
2022-10-19T05:29:39.387Z,94.80
2022-10-19T05:31:46.000Z,96.40
2022-10-19T05:33:52.844Z,100.60
2022-10-19T05:35:59.328Z,104.10
2022-10-19T05:38:05.824Z,102.70
2022-10-19T05:40:12.576Z,106.00
2022-10-19T05:42:19.199Z,105.80
2022-10-19T05:44:25.612Z,104.20
2022-10-19T05:46:33.153Z,106.10
2022-10-19T05:48:40.897Z,102.90
2022-10-19T05:51:07.617Z,109.60
2022-10-19T05:53:14.014Z,106.10
2022-10-19T05:55:20.166Z,106.20
2022-10-19T05:57:26.929Z,112.20
2022-10-19T05:59:33.557Z,101.60
2022-10-19T06:01:40.110Z,117.80
2022-10-19T06:03:46.981Z,121.90
2022-10-19T06:05:54.321Z,121.90
2022-10-19T06:08:00.945Z,122.80
2022-10-19T06:10:08.130Z,119.20
2022-10-19T06:12:15.847Z,127.40
2022-10-19T06:14:23.808Z,131.60
2022-10-19T06:16:32.398Z,120.60
2022-10-19T06:18:39.103Z,122.30
2022-10-19T06:20:45.460Z,119.10
2022-10-19T06:22:52.227Z,117.20
2022-10-19T06:24:58.399Z,116.50
2022-10-19T06:27:04.470Z,114.90
2022-10-19T06:29:11.322Z,112.60
2022-10-19T06:31:18.693Z,112.90
2022-10-19T06:33:24.659Z,107.00
2022-10-19T06:35:31.162Z,101.10
2022-10-19T06:37:37.598Z,103.00
2022-10-19T06:39:44.466Z,105.80
2022-10-19T06:41:51.030Z,112.90
2022-10-19T06:43:57.338Z,107.10
2022-10-19T06:46:09.207Z,107.40
2022-10-19T06:48:15.240Z,106.00
2022-10-19T06:50:21.760Z,101.50
2022-10-19T06:52:27.878Z,100.50
2022-10-19T06:54:34.352Z,101.20
2022-10-19T06:56:40.745Z,96.20
2022-10-19T06:58:48.334Z,97.30
2022-10-19T07:00:59.317Z,98.80
2022-10-19T07:03:05.532Z,96.60
2022-10-19T07:05:12.274Z,92.50
2022-10-19T07:07:18.749Z,92.00
2022-10-19T07:09:24.774Z,89.80
2022-10-19T07:11:31.102Z,89.30
2022-10-19T07:13:37.682Z,87.40
2022-10-19T07:15:43.765Z,84.80
2022-10-19T07:17:50.407Z,84.40
2022-10-19T07:19:56.678Z,82.40
2022-10-19T07:22:02.935Z,84.30
2022-10-19T07:24:10.061Z,83.90
2022-10-19T07:26:24.486Z,83.10
2022-10-19T07:28:31.923Z,75.20
2022-10-19T07:30:40.244Z,84.80
2022-10-19T07:32:47.159Z,84.50
2022-10-19T07:34:53.658Z,77.70
2022-10-19T07:36:59.579Z,89.30
2022-10-19T07:39:07.971Z,89.90
2022-10-19T07:41:17.255Z,82.90
2022-10-19T07:43:23.603Z,86.90
2022-10-19T07:45:31.334Z,87.40
2022-10-19T07:47:37.865Z,89.20
2022-10-19T07:49:44.846Z,88.80
2022-10-19T07:51:55.018Z,85.50
2022-10-19T07:54:01.671Z,87.20
2022-10-19T07:56:17.565Z,89.80
2022-10-19T07:58:24.090Z,89.30
2022-10-19T08:00:30.941Z,93.40
2022-10-19T08:02:54.628Z,93.50
2022-10-19T08:05:06.342Z,95.60
2022-10-19T08:07:15.351Z,95.20
2022-10-19T08:09:51.355Z,91.90
2022-10-19T08:11:48.944Z,91.50
2022-10-19T08:13:56.149Z,92.60
2022-10-19T08:16:02.443Z,95.40
2022-10-19T08:18:08.604Z,92.50
2022-10-19T08:20:15.213Z,90.70
2022-10-19T08:22:21.480Z,93.10
2022-10-19T08:24:27.928Z,90.50
2022-10-19T08:26:37.178Z,97.90
2022-10-19T08:28:43.141Z,103.40
2022-10-19T08:30:49.943Z,108.10
2022-10-19T08:32:56.492Z,108.60
2022-10-19T08:35:04.260Z,112.30
2022-10-19T08:37:25.951Z,120.00
2022-10-19T08:39:39.503Z,128.20
2022-10-19T08:41:54.674Z,132.30
2022-10-19T08:44:16.669Z,135.00
2022-10-19T08:47:06.060Z,145.50
2022-10-19T08:49:20.975Z,158.10
2022-10-19T08:51:29.416Z,165.20
2022-10-19T08:53:53.845Z,166.50
2022-10-19T08:56:49.253Z,172.40
2022-10-19T09:01:28.528Z,170.20
2022-10-19T09:03:56.170Z,172.00
2022-10-19T09:06:30.443Z,178.60
2022-10-19T09:08:40.492Z,177.50
2022-10-19T09:10:50.850Z,181.00
2022-10-19T09:13:09.303Z,174.60
2022-10-19T09:15:22.149Z,181.30
2022-10-19T09:17:29.366Z,192.20
2022-10-19T09:19:35.430Z,215.60
2022-10-19T09:21:59.852Z,221.40
2022-10-19T09:24:28.805Z,239.60
2022-10-19T09:26:51.648Z,250.70
2022-10-19T09:29:13.417Z,253.60
2022-10-19T09:31:44.607Z,195.60
2022-10-19T09:33:57.651Z,269.90
2022-10-19T09:36:06.601Z,268.70
2022-10-19T09:38:17.772Z,274.80
2022-10-19T09:40:30.519Z,269.50
2022-10-19T09:42:37.955Z,276.00
2022-10-19T09:44:44.470Z,269.40
2022-10-19T09:46:53.494Z,261.30
2022-10-19T09:49:04.883Z,247.10
2022-10-19T09:51:17.029Z,250.60
2022-10-19T09:53:24.011Z,232.80
2022-10-19T09:55:39.012Z,232.90
2022-10-19T09:57:51.111Z,232.10
2022-10-19T10:02:18.517Z,217.60
2022-10-19T10:04:25.113Z,206.30
2022-10-19T10:06:31.455Z,215.50
2022-10-19T10:08:47.694Z,211.80
2022-10-19T10:11:10.355Z,201.80
2022-10-19T10:13:22.572Z,193.40
2022-10-19T10:15:43.462Z,187.30
2022-10-19T10:17:51.285Z,186.30
2022-10-19T10:20:00.657Z,184.00
2022-10-19T10:22:23.647Z,183.70
2022-10-19T10:24:32.709Z,178.30
2022-10-19T10:26:45.227Z,175.30
2022-10-19T10:28:53.273Z,180.50
2022-10-19T10:31:09.553Z,175.00
2022-10-19T10:33:40.279Z,175.40
2022-10-19T10:35:54.720Z,167.40
2022-10-19T10:38:29.397Z,164.80
2022-10-19T10:40:35.637Z,171.50
2022-10-19T10:42:47.220Z,168.60
2022-10-19T10:44:57.316Z,169.80
2022-10-19T10:47:07.941Z,170.50
2022-10-19T10:49:45.742Z,171.10
2022-10-19T10:52:13.269Z,176.10
2022-10-19T10:54:25.218Z,183.80
2022-10-19T10:56:34.933Z,171.00
2022-10-19T10:58:49.015Z,188.20
2022-10-19T11:00:55.632Z,185.10
2022-10-19T11:03:39.245Z,187.80
2022-10-19T11:06:00.235Z,188.10
2022-10-19T11:08:24.650Z,187.70
2022-10-19T11:10:38.041Z,192.90
2022-10-19T11:12:50.361Z,190.60
2022-10-19T11:15:24.195Z,190.00
2022-10-19T11:17:35.008Z,187.60
2022-10-19T11:19:51.264Z,188.00
2022-10-19T11:22:16.537Z,191.30
2022-10-19T11:24:47.828Z,190.40
2022-10-19T11:27:24.496Z,191.00
2022-10-19T11:29:33.577Z,192.20
2022-10-19T11:32:32.841Z,193.20
2022-10-19T11:34:52.449Z,184.70
2022-10-19T11:37:27.528Z,188.30
2022-10-19T11:39:53.165Z,187.80
2022-10-19T11:42:20.775Z,188.70
2022-10-19T11:45:04.927Z,191.20
2022-10-19T11:47:21.414Z,189.20
2022-10-19T11:49:33.207Z,183.60
2022-10-19T11:51:53.088Z,178.90
2022-10-19T11:54:17.972Z,176.30
2022-10-19T11:56:44.859Z,173.90
2022-10-19T11:59:07.928Z,168.60
2022-10-19T12:01:36.315Z,159.70
2022-10-19T12:04:02.582Z,162.50
2022-10-19T12:06:14.683Z,163.10
2022-10-19T12:08:43.293Z,164.90
2022-10-19T12:11:29.581Z,156.90
2022-10-19T12:13:48.116Z,143.20
2022-10-19T12:15:57.954Z,140.90
2022-10-19T12:18:14.304Z,143.60
2022-10-19T12:20:44.366Z,140.10
2022-10-19T12:22:51.453Z,138.40
2022-10-19T12:25:01.549Z,136.20
2022-10-19T12:27:12.315Z,137.90
2022-10-19T12:29:29.424Z,130.90
2022-10-19T12:31:37.271Z,131.90
2022-10-19T12:34:01.292Z,133.30
2022-10-19T12:36:16.240Z,137.30
2022-10-19T12:38:44.014Z,136.30
2022-10-19T12:41:12.110Z,138.00
2022-10-19T12:43:24.857Z,133.70
2022-10-19T12:45:43.111Z,138.60
2022-10-19T12:48:21.796Z,135.30
2022-10-19T12:50:55.090Z,130.60
2022-10-19T12:53:01.502Z,128.00
2022-10-19T12:55:36.033Z,125.10
2022-10-19T12:57:44.767Z,123.10
2022-10-19T13:00:02.362Z,96.90
2022-10-19T13:02:31.112Z,107.50
2022-10-19T13:04:38.950Z,103.80
2022-10-19T13:06:50.423Z,104.70
2022-10-19T13:08:57.116Z,104.40
2022-10-19T13:11:09.177Z,104.80
2022-10-19T13:15:40.232Z,105.00
2022-10-19T13:17:52.096Z,110.20
2022-10-19T13:20:17.152Z,110.70
2022-10-19T13:22:29.075Z,109.90
2022-10-19T13:26:43.687Z,134.60
2022-10-19T13:28:57.149Z,133.20
2022-10-19T13:31:06.940Z,136.00
2022-10-19T13:33:33.655Z,141.80
2022-10-19T13:35:40.678Z,142.20
2022-10-19T13:37:46.857Z,144.30
2022-10-19T13:39:52.986Z,144.40
2022-10-19T13:42:00.358Z,155.80
2022-10-19T13:44:16.407Z,150.00
2022-10-19T13:46:22.367Z,142.60
2022-10-19T13:49:05.506Z,145.60
2022-10-19T13:51:30.324Z,141.30
2022-10-19T13:53:49.848Z,150.20
2022-10-19T14:01:24.689Z,149.70
2022-10-19T14:03:54.501Z,143.50
2022-10-19T14:06:05.919Z,146.30
2022-10-19T14:08:43.053Z,144.60
2022-10-19T14:11:00.955Z,141.20
2022-10-19T14:13:14.563Z,138.10
2022-10-19T14:15:31.145Z,138.70
2022-10-19T14:17:43.715Z,131.20
2022-10-19T14:19:53.674Z,141.80
2022-10-19T14:22:02.812Z,139.00
2022-10-19T14:24:36.833Z,138.60
2022-10-19T14:26:43.414Z,138.50
2022-10-19T14:29:00.812Z,139.70
2022-10-19T14:31:09.755Z,134.50
2022-10-19T14:33:18.962Z,133.30
2022-10-19T14:35:36.949Z,139.80
2022-10-19T14:37:45.162Z,135.30
2022-10-19T14:40:26.799Z,132.90
2022-10-19T14:42:48.469Z,135.50
2022-10-19T14:44:56.525Z,132.70
2022-10-19T14:47:04.174Z,125.10
2022-10-19T14:49:12.999Z,133.40
2022-10-19T14:51:56.003Z,132.70
2022-10-19T14:54:13.075Z,125.60
2022-10-19T14:56:29.886Z,132.70
2022-10-19T14:58:46.787Z,127.90
2022-10-19T15:00:54.966Z,129.10
2022-10-19T15:03:06.418Z,128.40
2022-10-19T15:05:29.652Z,130.40
2022-10-19T15:07:44.298Z,128.30
2022-10-19T15:09:59.597Z,126.30
2022-10-19T15:12:13.834Z,129.20
2022-10-19T15:14:24.580Z,126.90
2022-10-19T15:16:59.043Z,128.10
2022-10-19T15:19:16.996Z,121.00
2022-10-19T15:21:23.759Z,125.50
2022-10-19T15:23:43.664Z,121.40
2022-10-19T15:26:01.304Z,121.00
2022-10-19T15:28:34.973Z,116.10
2022-10-19T15:30:44.217Z,119.20
2022-10-19T15:33:09.578Z,119.20
2022-10-19T15:35:21.850Z,119.60
2022-10-19T15:37:28.270Z,117.60
2022-10-19T15:39:40.972Z,119.80
2022-10-19T15:41:49.960Z,118.80
2022-10-19T15:43:59.954Z,122.10
2022-10-19T15:46:22.819Z,117.50
2022-10-19T15:48:51.119Z,117.70
2022-10-19T15:51:00.360Z,121.30
2022-10-19T15:53:06.940Z,113.70
2022-10-19T15:55:15.496Z,121.20
2022-10-19T15:57:32.894Z,117.10
2022-10-19T15:59:39.474Z,117.10
2022-10-19T16:01:46.767Z,115.00
2022-10-19T16:03:53.434Z,110.10
2022-10-19T16:06:00.152Z,111.30
2022-10-19T16:08:10.169Z,112.20
2022-10-19T16:10:22.759Z,111.30
2022-10-19T16:12:28.782Z,108.70
2022-10-19T16:14:36.700Z,97.10
2022-10-19T16:16:43.562Z,108.30
2022-10-19T16:18:49.571Z,110.00
2022-10-19T16:20:55.516Z,104.70
2022-10-19T16:23:01.554Z,106.70
2022-10-19T16:25:08.052Z,105.00
2022-10-19T16:27:17.454Z,104.90
2022-10-19T16:29:26.755Z,104.10
2022-10-19T16:31:35.188Z,102.90
2022-10-19T16:33:41.402Z,96.80
2022-10-19T16:35:47.765Z,97.40
2022-10-19T16:37:54.307Z,91.60
2022-10-19T16:40:00.929Z,91.60
2022-10-19T16:42:08.255Z,89.10
2022-10-19T16:44:14.840Z,86.40
2022-10-19T16:46:24.328Z,84.30
2022-10-19T16:48:31.010Z,76.80
2022-10-19T16:50:37.814Z,74.70
2022-10-19T16:52:44.402Z,72.40
2022-10-19T16:54:50.343Z,76.90
2022-10-19T16:56:56.969Z,73.50
2022-10-19T16:59:08.038Z,78.10
2022-10-19T17:01:19.487Z,79.10
2022-10-19T17:03:25.588Z,78.20
2022-10-19T17:05:31.607Z,78.00
2022-10-19T17:07:37.805Z,79.90
2022-10-19T17:09:44.362Z,80.30
2022-10-19T17:11:50.439Z,82.90
2022-10-19T17:13:59.426Z,82.50
2022-10-19T17:16:07.151Z,80.50
2022-10-19T17:18:13.163Z,86.80
2022-10-19T17:20:19.226Z,82.10
2022-10-19T17:22:25.476Z,83.50
2022-10-19T17:24:32.580Z,86.00
2022-10-19T17:26:44.703Z,85.40
2022-10-19T17:28:51.025Z,84.70
2022-10-19T17:30:58.878Z,85.00
2022-10-19T17:33:05.498Z,86.60
2022-10-19T17:35:11.981Z,86.00
2022-10-19T17:37:18.194Z,86.70
2022-10-19T17:39:29.808Z,87.10
2022-10-19T17:41:37.236Z,87.60
2022-10-19T17:43:45.286Z,89.20
2022-10-19T17:46:06.322Z,92.90
2022-10-19T17:48:13.039Z,95.00
2022-10-19T17:50:19.773Z,95.40
2022-10-19T17:52:26.109Z,96.70
2022-10-19T17:54:43.420Z,95.70
2022-10-19T17:56:59.433Z,86.10
2022-10-19T17:59:08.868Z,95.20
2022-10-19T18:01:16.590Z,97.60
2022-10-19T18:03:24.003Z,96.50
2022-10-19T18:05:30.236Z,97.90
2022-10-19T18:07:36.992Z,97.00
2022-10-19T18:09:43.254Z,96.80
2022-10-19T18:11:49.499Z,92.90
2022-10-19T18:14:00.518Z,92.40
2022-10-19T18:16:10.982Z,92.80
2022-10-19T18:18:19.925Z,93.70
2022-10-19T18:20:25.972Z,88.60
2022-10-19T18:22:32.525Z,89.30
2022-10-19T18:24:39.839Z,91.20
2022-10-19T18:26:46.370Z,98.30
2022-10-19T18:28:56.441Z,102.00
2022-10-19T18:31:15.799Z,105.30
2022-10-19T18:33:24.286Z,104.90
2022-10-19T18:35:31.296Z,105.40
2022-10-19T18:37:37.764Z,105.20
2022-10-19T18:39:44.565Z,109.20
2022-10-19T18:41:55.410Z,103.90
2022-10-19T18:44:04.567Z,109.80
2022-10-19T18:46:13.068Z,106.60
2022-10-19T18:48:20.036Z,112.30
2022-10-19T18:50:26.853Z,107.30
2022-10-19T18:52:37.070Z,109.60
2022-10-19T18:54:44.222Z,111.30
2022-10-19T18:56:50.748Z,108.40
2022-10-19T18:58:57.809Z,106.20
2022-10-19T19:01:12.017Z,107.80
2022-10-19T19:03:21.718Z,108.30
2022-10-19T19:05:33.858Z,105.20
2022-10-19T19:07:42.163Z,109.70
2022-10-19T19:10:01.249Z,104.40
2022-10-19T19:12:08.756Z,101.00
2022-10-19T19:14:23.737Z,103.20
2022-10-19T19:16:34.998Z,101.00
2022-10-19T19:18:42.618Z,104.00
2022-10-19T19:20:50.280Z,99.80
2022-10-19T19:23:00.019Z,99.10
2022-10-19T19:25:07.755Z,98.10
2022-10-19T19:27:14.927Z,100.00
2022-10-19T19:29:23.468Z,97.50
2022-10-19T19:31:34.248Z,95.00
2022-10-19T19:33:41.431Z,90.20
2022-10-19T19:35:50.042Z,86.50
2022-10-19T19:37:57.804Z,87.00
2022-10-19T19:40:10.336Z,86.30
2022-10-19T19:42:25.676Z,79.20
2022-10-19T19:44:35.806Z,75.10
2022-10-19T19:46:44.233Z,72.90
2022-10-19T19:48:54.133Z,69.40
2022-10-19T19:51:04.535Z,75.80
2022-10-19T19:53:14.323Z,73.00
2022-10-19T19:55:21.415Z,74.00
2022-10-19T19:57:31.008Z,74.60
2022-10-19T19:59:42.328Z,69.70
2022-10-19T20:01:54.450Z,73.80
2022-10-19T20:04:08.328Z,66.40
2022-10-19T20:06:19.692Z,69.60
2022-10-19T20:08:29.476Z,68.30
2022-10-19T20:10:48.659Z,70.20
2022-10-19T20:12:59.396Z,67.50
2022-10-19T20:15:08.085Z,65.70
2022-10-19T20:17:16.261Z,65.90
2022-10-19T20:19:24.765Z,63.60
2022-10-19T20:21:33.015Z,62.30
2022-10-19T20:23:41.535Z,63.00
2022-10-19T20:25:55.238Z,59.50
2022-10-19T20:28:03.018Z,56.70
2022-10-19T20:30:14.294Z,60.10
2022-10-19T20:32:22.218Z,54.40
2022-10-19T20:34:30.873Z,58.20
2022-10-19T20:36:44.208Z,54.00
2022-10-19T20:38:57.171Z,53.20
2022-10-19T20:41:09.273Z,52.00
2022-10-19T20:43:16.561Z,49.90
2022-10-19T20:45:26.762Z,47.80
2022-10-19T20:47:36.632Z,48.20
2022-10-19T20:49:45.160Z,45.70
2022-10-19T20:51:56.471Z,44.20
2022-10-19T20:54:05.885Z,46.10
2022-10-19T20:56:13.997Z,44.10
2022-10-19T20:58:21.347Z,43.30
2022-10-19T21:00:28.828Z,39.90
2022-10-19T21:02:38.977Z,44.30
2022-10-19T21:04:46.588Z,42.80
2022-10-19T21:06:54.517Z,42.10
2022-10-19T21:09:02.604Z,42.30
2022-10-19T21:11:26.114Z,42.00
2022-10-19T21:13:33.768Z,39.20
2022-10-19T21:15:46.272Z,42.70
2022-10-19T21:17:54.563Z,41.10
2022-10-19T21:20:04.127Z,41.40
2022-10-19T21:22:13.431Z,40.20
2022-10-19T21:24:28.834Z,41.90
2022-10-19T21:26:38.207Z,42.10
2022-10-19T21:28:56.885Z,40.60
2022-10-19T21:31:09.577Z,41.10
2022-10-19T21:33:17.535Z,41.10
2022-10-19T21:35:25.385Z,40.70
2022-10-19T21:37:32.978Z,41.00
2022-10-19T21:39:44.546Z,41.50
2022-10-19T21:41:52.417Z,41.50
2022-10-19T21:44:05.188Z,40.40
2022-10-19T21:46:17.912Z,44.00
2022-10-19T21:48:26.223Z,41.00
2022-10-19T21:50:36.888Z,41.40
2022-10-19T21:52:44.046Z,41.30
2022-10-19T21:54:51.328Z,41.40
2022-10-19T21:56:59.951Z,41.50
2022-10-19T21:59:11.136Z,42.90
2022-10-19T22:01:23.520Z,41.80
2022-10-19T22:03:31.393Z,41.70
2022-10-19T22:05:40.088Z,43.40
2022-10-19T22:07:47.296Z,43.00
2022-10-19T22:10:02.161Z,42.40
2022-10-19T22:14:29.498Z,44.00
2022-10-19T22:16:41.128Z,43.00
2022-10-19T22:18:49.593Z,45.90
2022-10-19T22:20:57.185Z,43.50
2022-10-19T22:23:05.723Z,47.00
2022-10-19T22:25:12.964Z,45.80
2022-10-19T22:27:22.461Z,48.10
2022-10-19T22:29:29.516Z,45.30
2022-10-19T22:31:38.515Z,48.30
2022-10-19T22:33:46.635Z,48.20
2022-10-19T22:36:03.806Z,48.90
2022-10-19T22:38:12.468Z,50.20
2022-10-19T22:40:19.868Z,51.80
2022-10-19T22:43:21.708Z,48.70
2022-10-19T22:45:49.335Z,51.80
2022-10-19T22:47:55.775Z,54.90
2022-10-19T22:50:02.471Z,54.10
2022-10-19T22:52:08.957Z,58.70
2022-10-19T22:54:15.817Z,56.50
2022-10-19T22:56:22.294Z,56.60
2022-10-19T22:58:28.931Z,59.80
2022-10-19T23:00:35.263Z,60.70
2022-10-19T23:02:41.390Z,59.70
2022-10-19T23:04:48.110Z,59.40
2022-10-19T23:06:54.708Z,54.80
2022-10-19T23:09:01.862Z,62.70
2022-10-19T23:11:08.982Z,63.10
2022-10-19T23:13:16.228Z,59.80
2022-10-19T23:15:23.807Z,62.10
2022-10-19T23:17:30.094Z,59.30
2022-10-19T23:19:36.442Z,57.70
2022-10-19T23:21:44.263Z,56.20
2022-10-19T23:23:50.811Z,57.30
2022-10-19T23:26:12.820Z,58.20
2022-10-19T23:28:19.919Z,54.40
2022-10-19T23:30:28.236Z,57.10
2022-10-19T23:32:35.499Z,54.80
2022-10-19T23:34:47.435Z,53.80
2022-10-19T23:36:56.478Z,54.20
2022-10-19T23:39:07.100Z,61.30
2022-10-19T23:41:15.315Z,58.90
2022-10-19T23:43:22.276Z,59.30
2022-10-19T23:45:29.721Z,59.00
2022-10-19T23:47:37.584Z,57.80
2022-10-19T23:49:46.270Z,58.80
2022-10-19T23:51:59.507Z,58.90
2022-10-19T23:54:06.423Z,56.20
2022-10-19T23:56:20.807Z,60.90
2022-10-19T23:58:36.812Z,56.10
